This is the latest recevied weather packets stored in our database for station/object GW1497. If no packets are shown the sender has not sent any weather packets the latest 10 day(s).
| Time | Temp. | Humidity | Pressure | Rain* | Wind** | Luminosity | Snow |
|---|---|---|---|---|---|---|---|
| 1778102833 | 13.89° C | 85% | 1013.5 hPa | 21.84 mm | - | - | - |
| 1778100331 | 13.33° C | 85% | 1013.2 hPa | 21.84 mm | - | - | - |
| 1778099591 | 14.44° C | 83% | 1013.2 hPa | 21.84 mm | - | - | - |
| 1778096393 | 12.78° C | 89% | 1013.2 hPa | 21.84 mm | - | - | - |
| 1778094943 | 12.78° C | 90% | 1013.2 hPa | 21.84 mm | - | - | - |
| 1778094221 | 12.22° C | 93% | 1013.2 hPa | 21.84 mm | - | - | - |
| 1778092760 | 12.22° C | 95% | 1013.2 hPa | 21.84 mm | - | - | - |
| 1778089887 | 11.11° C | 99% | 1013.2 hPa | 21.84 mm | - | - | - |
| 1778085586 | 11.67° C | 99% | 1012.5 hPa | 21.84 mm | - | - | - |
| 1778084869 | 11.67° C | 99% | 1012.8 hPa | 21.84 mm | - | - | - |
| 1778084146 | 12.22° C | 99% | 1012.5 hPa | 21.84 mm | - | - | - |
| 1778080174 | 12.22° C | 99% | 1011.5 hPa | 21.59 mm | - | - | - |
| 1778079791 | 12.22° C | 99% | 1011.5 hPa | 21.59 mm | - | - | - |
| 1778077277 | 14.44° C | 99% | 1010.4 hPa | 20.83 mm | - | - | - |
| 1778076575 | 14.44° C | 99% | 1010.1 hPa | 20.83 mm | - | - | - |
| 1778074430 | 14.44° C | 99% | 1009.4 hPa | 20.83 mm | - | - | - |
| 1778071906 | 13.89° C | 99% | 1009.8 hPa | 20.83 mm | - | - | - |
| 1778070800 | 13.89° C | 99% | 1009.4 hPa | 20.83 mm | - | - | - |
| 1778070435 | 13.89° C | 99% | 1009.4 hPa | 20.83 mm | - | - | - |
| 1778067588 | 13.33° C | 99% | 1009.4 hPa | 20.57 mm | - | - | - |
| 1778065753 | 13.33° C | 99% | 1009.4 hPa | 19.81 mm | - | - | - |
| 1778063631 | 13.33° C | 99% | 1009.1 hPa | 18.29 mm | - | - | - |
| 1778059273 | 13.33° C | 99% | 1009.1 hPa | 12.95 mm | - | - | - |
| 1778057856 | 13.33° C | 99% | 1009.4 hPa | 11.43 mm | - | - | - |
| 1778056766 | 13.89° C | 98% | 1009.8 hPa | 8.38 mm | - | - | - |
* Rain since midnight (hover to see other rain measurements)
** Current wind speed in m/s (hover to see current wind gust speed)